Pagrindinis puslapis
METAR-TAF:

METAR-TAF

Oro uostai :

Moldė, Norvegija

platuma: 62-45N, ilguma: 007-16E, Aukštis: 0 m

Dabartinis oras

Ataskaita buvo paskelbta 15 minutes, ne 04:50 UTC
Vėjas 8 kt iš Vakarų
Temperatūra 6°C
Drėgmė 75%
Slėgis 1018 hPa
Matomumas 10 km arba daugiau
Mažai debesys ne aukštis 2500 ft
Su prošvaistėmis ne aukštis 4500 ft

METAR: ENML 070450Z 27008KT 9999 FEW025 BKN045 06/02 Q1018

Laikas: 07:05 (05:05 UTC)

Prognozė

Ataskaita buvo paskelbta 12 valandos ir 11 minutes, ne 16:54 UTC
Prognozė galioja nuo 06 metu 16 UTC su 06 metu 19 UTC
Vėjas 10 kt iš Šiaurės/Šiaurės Rytų
Matomumas 10 km arba daugiau
Mažai debesys ne aukštis 4000 ft
Išsisklaidę debesys ne aukštis 7000 ft
Tapsmas
nuo 06 metu 17 UTC su 06 metu 19 UTC
Vėjas 5 kt nuo kintamojo kryptimis

TAF: ENML 061654Z 0616/0619 02010KT 9999 FEW040 SCT070 BECMG 0617/0619 VRB05KT

Orai ataskaitas ir orų prognozės (METAR, TAF).

turimą stotys yra geltonos ir raudonos taškus žemėlapyje.

Perkelti pele per norėdami pamatyti stoties vardą.

Tada spustelėkite, norėdami matyti oro stebėjimo ir prognozės.

Norėdami pakeisti žemėlapį: spustelėkite ant žalios mygtukų su juodo kryžiaus žemyn,; žalią mygtuką su brūkšneliu, jei norite nutolinti; arba žalių rodyklių gretimoms žemėlapius.


METAR-TAF: